createdAt,value
2018-09-04T00:00:04.666Z,31
2018-09-04T00:00:17.106Z,31
2018-09-04T00:00:29.547Z,31
2018-09-04T00:00:42.073Z,31
2018-09-04T00:00:54.499Z,31
2018-09-04T00:01:06.935Z,31
2018-09-04T00:01:19.395Z,31
2018-09-04T00:01:31.823Z,31
2018-09-04T00:01:44.228Z,31
2018-09-04T00:01:56.643Z,31
2018-09-04T00:02:09.110Z,31
2018-09-04T00:02:21.536Z,31
2018-09-04T00:02:34.025Z,31
2018-09-04T00:02:46.443Z,31
2018-09-04T00:02:59.134Z,31
2018-09-04T00:03:11.531Z,31
2018-09-04T00:03:23.937Z,31
2018-09-04T00:03:36.362Z,31
2018-09-04T00:03:48.784Z,31
2018-09-04T00:04:01.209Z,30
2018-09-04T00:04:13.641Z,30
2018-09-04T00:04:26.075Z,30
2018-09-04T00:04:38.469Z,30
2018-09-04T00:04:51.043Z,30
2018-09-04T00:05:03.470Z,30
2018-09-04T00:05:15.922Z,30
2018-09-04T00:05:28.368Z,30
2018-09-04T00:05:40.806Z,30
2018-09-04T00:05:53.246Z,30
2018-09-04T00:06:05.663Z,30
2018-09-04T00:06:18.065Z,26
2018-09-04T00:06:30.494Z,26
2018-09-04T00:06:42.905Z,26
2018-09-04T00:06:55.303Z,26
2018-09-04T00:07:07.695Z,26
2018-09-04T00:07:20.141Z,26
2018-09-04T00:07:32.566Z,26
2018-09-04T00:07:44.950Z,26
2018-09-04T00:07:57.356Z,26
2018-09-04T00:08:09.755Z,26
2018-09-04T00:08:22.152Z,26
2018-09-04T00:08:34.559Z,26
2018-09-04T00:08:46.966Z,35
2018-09-04T00:08:59.366Z,22
2018-09-04T00:09:11.773Z,22
2018-09-04T00:09:24.168Z,22
2018-09-04T00:09:36.564Z,22
2018-09-04T00:09:49.001Z,22
2018-09-04T00:10:01.421Z,22
2018-09-04T00:10:13.830Z,22
2018-09-04T00:10:26.235Z,22
2018-09-04T00:10:38.644Z,22
2018-09-04T00:10:51.061Z,22
2018-09-04T00:11:03.468Z,22
2018-09-04T00:11:15.877Z,22
2018-09-04T00:11:28.346Z,44
2018-09-04T00:11:40.964Z,44
2018-09-04T00:11:53.365Z,44
2018-09-04T00:12:05.908Z,39
2018-09-04T00:12:18.301Z,39
2018-09-04T00:12:30.713Z,39
2018-09-04T00:12:43.122Z,39
2018-09-04T00:12:55.794Z,39
2018-09-04T00:13:08.220Z,39
2018-09-04T00:13:20.629Z,39
2018-09-04T00:13:33.089Z,39
2018-09-04T00:13:45.514Z,39
2018-09-04T00:13:58.051Z,39
2018-09-04T00:14:10.501Z,39
2018-09-04T00:14:22.939Z,39
2018-09-04T00:14:35.377Z,51
2018-09-04T00:14:47.792Z,360
2018-09-04T00:15:00.197Z,31
2018-09-04T00:15:12.608Z,26
2018-09-04T00:15:25.013Z,26
2018-09-04T00:15:37.410Z,26
2018-09-04T00:15:49.813Z,26
2018-09-04T00:16:02.222Z,26
2018-09-04T00:16:14.608Z,26
2018-09-04T00:16:26.996Z,26
2018-09-04T00:16:39.387Z,26
2018-09-04T00:16:51.785Z,23
2018-09-04T00:17:04.198Z,38
2018-09-04T00:17:16.611Z,38
2018-09-04T00:17:29.014Z,38
2018-09-04T00:17:41.417Z,38
2018-09-04T00:17:53.867Z,38
2018-09-04T00:18:06.272Z,38
2018-09-04T00:18:18.677Z,38
2018-09-04T00:18:31.104Z,39
2018-09-04T00:18:43.533Z,38
2018-09-04T00:18:55.943Z,38
2018-09-04T00:19:08.361Z,38
2018-09-04T00:19:20.773Z,38
2018-09-04T00:19:33.172Z,38
2018-09-04T00:19:45.573Z,28
2018-09-04T00:19:58.292Z,28
2018-09-04T00:20:10.777Z,28
2018-09-04T00:20:23.175Z,28
2018-09-04T00:20:35.592Z,28
2018-09-04T00:20:48.082Z,30
2018-09-04T00:21:00.482Z,30
2018-09-04T00:21:13.039Z,30
2018-09-04T00:21:25.453Z,30
2018-09-04T00:21:38.056Z,30
2018-09-04T00:21:50.472Z,30
2018-09-04T00:22:02.883Z,30
2018-09-04T00:22:15.308Z,30
2018-09-04T00:22:27.710Z,30
2018-09-04T00:22:40.128Z,30
2018-09-04T00:22:52.661Z,38
2018-09-04T00:23:05.051Z,34
2018-09-04T00:23:17.458Z,30
2018-09-04T00:23:29.853Z,30
2018-09-04T00:23:42.338Z,30
2018-09-04T00:23:54.740Z,30
2018-09-04T00:24:07.133Z,30
2018-09-04T00:24:19.598Z,30
2018-09-04T00:24:32.036Z,30
2018-09-04T00:24:44.444Z,30
2018-09-04T00:24:57.013Z,30
2018-09-04T00:25:09.425Z,30
2018-09-04T00:25:21.828Z,29
2018-09-04T00:25:34.247Z,29
2018-09-04T00:25:46.686Z,29
2018-09-04T00:25:59.096Z,29
2018-09-04T00:26:11.502Z,29
2018-09-04T00:26:23.961Z,29
2018-09-04T00:26:36.364Z,29
2018-09-04T00:26:48.763Z,29
2018-09-04T00:27:01.189Z,5
2018-09-04T00:27:13.604Z,5
2018-09-04T00:27:26.006Z,5
2018-09-04T00:27:38.419Z,5
2018-09-04T00:27:50.828Z,5
2018-09-04T00:28:03.252Z,360
2018-09-04T00:28:15.645Z,360
2018-09-04T00:28:28.196Z,67
2018-09-04T00:28:40.599Z,72
2018-09-04T00:28:53.008Z,72
2018-09-04T00:29:05.417Z,72
2018-09-04T00:29:17.811Z,61
2018-09-04T00:29:30.227Z,43
2018-09-04T00:29:42.633Z,43
2018-09-04T00:29:55.038Z,43
2018-09-04T00:30:07.446Z,43
2018-09-04T00:30:19.856Z,43
2018-09-04T00:30:32.254Z,43
2018-09-04T00:30:44.831Z,43
2018-09-04T00:30:57.247Z,43
2018-09-04T00:31:09.664Z,43
2018-09-04T00:31:22.229Z,39
2018-09-04T00:31:34.635Z,26
2018-09-04T00:31:47.053Z,55
2018-09-04T00:31:59.449Z,52
2018-09-04T00:32:11.855Z,51
2018-09-04T00:32:24.255Z,39
2018-09-04T00:32:36.645Z,39
2018-09-04T00:32:49.070Z,44
2018-09-04T00:33:01.474Z,45
2018-09-04T00:33:13.885Z,45
2018-09-04T00:33:26.293Z,45
2018-09-04T00:33:38.699Z,46
2018-09-04T00:33:51.139Z,51
2018-09-04T00:34:03.550Z,51
2018-09-04T00:34:16.200Z,51
2018-09-04T00:34:29.564Z,51
2018-09-04T00:34:42.943Z,51
2018-09-04T00:34:55.381Z,51
2018-09-04T00:35:07.920Z,51
2018-09-04T00:35:20.335Z,51
2018-09-04T00:35:32.797Z,51
2018-09-04T00:35:45.205Z,51
2018-09-04T00:35:57.626Z,51
2018-09-04T00:36:10.044Z,51
2018-09-04T00:36:22.487Z,51
2018-09-04T00:36:34.889Z,51
2018-09-04T00:36:47.300Z,30
2018-09-04T00:36:59.708Z,28
2018-09-04T00:37:12.104Z,28
2018-09-04T00:37:24.489Z,36
2018-09-04T00:37:36.888Z,45
2018-09-04T00:37:49.295Z,45
2018-09-04T00:38:01.757Z,47
2018-09-04T00:38:14.164Z,47
2018-09-04T00:38:26.578Z,47
2018-09-04T00:38:38.972Z,47
2018-09-04T00:38:51.378Z,47
2018-09-04T00:39:03.782Z,47
2018-09-04T00:39:16.196Z,47
2018-09-04T00:39:28.598Z,47
2018-09-04T00:39:40.997Z,47
2018-09-04T00:39:53.394Z,47
2018-09-04T00:40:05.783Z,47
2018-09-04T00:40:18.194Z,47
2018-09-04T00:40:30.608Z,47
2018-09-04T00:40:42.998Z,47
2018-09-04T00:40:55.408Z,36
2018-09-04T00:41:07.830Z,36
2018-09-04T00:41:20.263Z,36
2018-09-04T00:41:32.686Z,36
2018-09-04T00:41:45.098Z,36
2018-09-04T00:41:57.528Z,36
2018-09-04T00:42:09.951Z,36
2018-09-04T00:42:22.358Z,36
2018-09-04T00:42:34.760Z,36
2018-09-04T00:42:47.193Z,36
2018-09-04T00:42:59.579Z,36
2018-09-04T00:43:11.981Z,36
2018-09-04T00:43:24.389Z,36
2018-09-04T00:43:36.813Z,36
2018-09-04T00:43:49.217Z,36
2018-09-04T00:44:01.625Z,36
2018-09-04T00:44:14.022Z,36
2018-09-04T00:44:26.431Z,36
2018-09-04T00:44:38.831Z,36
2018-09-04T00:44:51.265Z,36
2018-09-04T00:45:03.685Z,36
2018-09-04T00:45:16.136Z,36
2018-09-04T00:45:28.543Z,44
2018-09-04T00:45:40.943Z,46
2018-09-04T00:45:53.375Z,46
2018-09-04T00:46:05.810Z,46
2018-09-04T00:46:18.264Z,44
2018-09-04T00:46:30.689Z,44
2018-09-04T00:46:43.241Z,44
2018-09-04T00:46:55.662Z,44
2018-09-04T00:47:08.058Z,44
2018-09-04T00:47:20.465Z,44
2018-09-04T00:47:32.914Z,44
2018-09-04T00:47:45.324Z,44
2018-09-04T00:47:57.746Z,44
2018-09-04T00:48:10.223Z,44
2018-09-04T00:48:22.636Z,44
2018-09-04T00:48:35.047Z,44
2018-09-04T00:48:47.453Z,44
2018-09-04T00:48:59.914Z,44
2018-09-04T00:49:12.695Z,44
2018-09-04T00:49:25.112Z,44
2018-09-04T00:49:37.520Z,44
2018-09-04T00:49:49.911Z,44
2018-09-04T00:50:02.300Z,44
2018-09-04T00:50:14.702Z,44
2018-09-04T00:50:27.101Z,44
2018-09-04T00:50:39.500Z,44
2018-09-04T00:50:51.894Z,44
2018-09-04T00:51:04.293Z,44
2018-09-04T00:51:16.706Z,44
2018-09-04T00:51:29.102Z,44
2018-09-04T00:51:41.519Z,44
2018-09-04T00:51:53.930Z,45
2018-09-04T00:52:06.363Z,45
2018-09-04T00:52:18.793Z,45
2018-09-04T00:52:31.248Z,45
2018-09-04T00:52:43.654Z,45
2018-09-04T00:52:56.060Z,45
2018-09-04T00:53:08.500Z,45
2018-09-04T00:53:20.914Z,45
2018-09-04T00:53:33.343Z,47
2018-09-04T00:53:45.751Z,49
2018-09-04T00:53:58.164Z,49
2018-09-04T00:54:10.617Z,49
2018-09-04T00:54:23.021Z,49
2018-09-04T00:54:35.417Z,49
2018-09-04T00:54:47.826Z,49
2018-09-04T00:55:00.353Z,49
2018-09-04T00:55:12.802Z,49
2018-09-04T00:55:25.189Z,49
2018-09-04T00:55:37.598Z,49
2018-09-04T00:55:49.990Z,49
2018-09-04T00:56:02.419Z,49
2018-09-04T00:56:14.822Z,49
2018-09-04T00:56:27.226Z,49
2018-09-04T00:56:39.614Z,49
2018-09-04T00:56:52.001Z,49
2018-09-04T00:57:04.393Z,49
2018-09-04T00:57:16.804Z,49
2018-09-04T00:57:29.230Z,49
2018-09-04T00:57:41.627Z,49
2018-09-04T00:57:54.027Z,49
2018-09-04T00:58:06.447Z,49
2018-09-04T00:58:18.842Z,49
2018-09-04T00:58:31.265Z,49
2018-09-04T00:58:43.656Z,49
2018-09-04T00:58:56.433Z,49
2018-09-04T00:59:10.158Z,46
2018-09-04T00:59:22.573Z,46
2018-09-04T00:59:34.962Z,50
2018-09-04T00:59:47.359Z,50
2018-09-04T00:59:59.757Z,50
2018-09-04T01:00:12.208Z,50
2018-09-04T01:00:24.657Z,50
2018-09-04T01:00:37.154Z,50
2018-09-04T01:00:49.588Z,50
2018-09-04T01:01:02.007Z,50
2018-09-04T01:01:14.424Z,50
2018-09-04T01:01:26.831Z,47
2018-09-04T01:01:39.272Z,47
2018-09-04T01:01:51.685Z,47
2018-09-04T01:02:04.111Z,47
2018-09-04T01:02:16.508Z,47
2018-09-04T01:02:28.908Z,47
2018-09-04T01:02:41.311Z,47
2018-09-04T01:02:53.724Z,47
2018-09-04T01:03:06.285Z,47
2018-09-04T01:03:18.686Z,47
2018-09-04T01:03:31.187Z,47
2018-09-04T01:03:43.600Z,47
2018-09-04T01:03:56.006Z,47
2018-09-04T01:04:08.430Z,37
2018-09-04T01:04:20.997Z,37
2018-09-04T01:04:33.438Z,33
2018-09-04T01:04:45.935Z,33
2018-09-04T01:04:58.349Z,37
2018-09-04T01:05:10.773Z,38
2018-09-04T01:05:23.168Z,33
2018-09-04T01:05:35.620Z,33
2018-09-04T01:05:48.019Z,33
2018-09-04T01:06:00.484Z,33
2018-09-04T01:06:12.888Z,33
2018-09-04T01:06:25.290Z,33
2018-09-04T01:06:37.733Z,33
2018-09-04T01:06:50.157Z,33
2018-09-04T01:07:02.551Z,33
2018-09-04T01:07:14.954Z,33
2018-09-04T01:07:27.348Z,33
2018-09-04T01:07:39.927Z,33
2018-09-04T01:07:52.362Z,33
2018-09-04T01:08:04.759Z,33
2018-09-04T01:08:17.156Z,50
2018-09-04T01:08:29.556Z,43
2018-09-04T01:08:41.953Z,43
2018-09-04T01:08:54.352Z,43
2018-09-04T01:09:06.753Z,36
2018-09-04T01:09:19.173Z,36
2018-09-04T01:09:31.603Z,36
2018-09-04T01:09:44.000Z,36
2018-09-04T01:09:56.413Z,36
2018-09-04T01:10:08.822Z,36
2018-09-04T01:10:21.236Z,36
2018-09-04T01:10:33.660Z,36
2018-09-04T01:10:46.081Z,36
2018-09-04T01:10:58.506Z,36
2018-09-04T01:11:10.922Z,36
2018-09-04T01:11:23.365Z,36
2018-09-04T01:11:35.884Z,36
2018-09-04T01:11:48.684Z,36
2018-09-04T01:12:01.266Z,34
2018-09-04T01:12:13.688Z,34
2018-09-04T01:12:26.091Z,34
2018-09-04T01:12:38.479Z,34
2018-09-04T01:12:50.865Z,34
2018-09-04T01:13:03.296Z,34
2018-09-04T01:13:15.705Z,34
2018-09-04T01:13:28.117Z,34
2018-09-04T01:13:40.670Z,34
2018-09-04T01:13:53.085Z,34
2018-09-04T01:14:05.551Z,34
2018-09-04T01:14:18.012Z,34
2018-09-04T01:14:30.435Z,34
2018-09-04T01:14:42.848Z,34
2018-09-04T01:14:55.270Z,34
2018-09-04T01:15:07.672Z,34
2018-09-04T01:15:20.080Z,34
2018-09-04T01:15:32.474Z,33
2018-09-04T01:15:44.944Z,32
2018-09-04T01:15:57.374Z,32
2018-09-04T01:16:09.767Z,32
2018-09-04T01:16:22.161Z,32
2018-09-04T01:16:34.567Z,32
2018-09-04T01:16:46.978Z,32
2018-09-04T01:16:59.478Z,32
2018-09-04T01:17:11.890Z,32
2018-09-04T01:17:24.275Z,32
2018-09-04T01:17:36.677Z,32
2018-09-04T01:17:49.092Z,32
2018-09-04T01:18:01.492Z,32
2018-09-04T01:18:13.888Z,32
2018-09-04T01:18:26.289Z,32
2018-09-04T01:18:38.694Z,32
2018-09-04T01:18:51.116Z,19
2018-09-04T01:19:03.512Z,11
2018-09-04T01:19:15.922Z,10
2018-09-04T01:19:28.377Z,10
2018-09-04T01:19:40.875Z,10
2018-09-04T01:19:53.308Z,10
2018-09-04T01:20:05.791Z,19
2018-09-04T01:20:18.198Z,19
2018-09-04T01:20:30.609Z,19
2018-09-04T01:20:43.104Z,19
2018-09-04T01:20:55.519Z,19
2018-09-04T01:21:07.995Z,19
2018-09-04T01:21:20.393Z,345
2018-09-04T01:21:32.795Z,345
2018-09-04T01:21:45.213Z,350
2018-09-04T01:21:57.715Z,350
2018-09-04T01:22:10.113Z,14
2018-09-04T01:22:22.531Z,350
2018-09-04T01:22:34.948Z,350
2018-09-04T01:22:47.353Z,350
2018-09-04T01:22:59.918Z,350
2018-09-04T01:23:12.323Z,350
2018-09-04T01:23:24.727Z,350
2018-09-04T01:23:37.323Z,350
2018-09-04T01:23:49.728Z,350
2018-09-04T01:24:02.129Z,350
2018-09-04T01:24:14.512Z,350
2018-09-04T01:24:26.941Z,350
2018-09-04T01:24:39.350Z,350
2018-09-04T01:24:52.120Z,350
2018-09-04T01:25:04.515Z,350
2018-09-04T01:25:16.930Z,350
2018-09-04T01:25:29.338Z,350
2018-09-04T01:25:41.737Z,350
2018-09-04T01:25:54.128Z,350
2018-09-04T01:26:06.518Z,11
2018-09-04T01:26:18.921Z,11
2018-09-04T01:26:31.323Z,11
2018-09-04T01:26:43.748Z,11
2018-09-04T01:26:56.179Z,11
2018-09-04T01:27:08.589Z,11
2018-09-04T01:27:20.984Z,11
2018-09-04T01:27:33.419Z,11
2018-09-04T01:27:45.814Z,11
2018-09-04T01:27:58.219Z,11
2018-09-04T01:28:10.634Z,11
2018-09-04T01:28:23.095Z,11
2018-09-04T01:28:35.514Z,11
2018-09-04T01:28:47.930Z,11
2018-09-04T01:29:00.347Z,11
2018-09-04T01:29:12.754Z,11
2018-09-04T01:29:25.186Z,355
2018-09-04T01:29:37.600Z,355
2018-09-04T01:29:50.024Z,23
2018-09-04T01:30:02.505Z,23
2018-09-04T01:30:14.911Z,23
2018-09-04T01:30:27.322Z,23
2018-09-04T01:30:39.770Z,23
2018-09-04T01:30:52.167Z,23
2018-09-04T01:31:04.623Z,23
2018-09-04T01:31:17.192Z,23
2018-09-04T01:31:29.605Z,23
2018-09-04T01:31:41.998Z,23
2018-09-04T01:31:54.414Z,23
2018-09-04T01:32:06.816Z,23
2018-09-04T01:32:19.281Z,23
2018-09-04T01:32:31.712Z,48
2018-09-04T01:32:44.118Z,70
2018-09-04T01:32:56.547Z,61
2018-09-04T01:33:08.959Z,55
2018-09-04T01:33:21.378Z,55
2018-09-04T01:33:33.823Z,34
2018-09-04T01:33:46.237Z,34
2018-09-04T01:33:58.654Z,34
2018-09-04T01:34:11.086Z,34
2018-09-04T01:34:23.497Z,34
2018-09-04T01:34:35.941Z,31
2018-09-04T01:34:48.348Z,31
2018-09-04T01:35:00.771Z,31
2018-09-04T01:35:13.190Z,31
2018-09-04T01:35:25.593Z,31
2018-09-04T01:35:37.981Z,31
2018-09-04T01:35:50.393Z,31
2018-09-04T01:36:02.799Z,31
2018-09-04T01:36:15.293Z,30
2018-09-04T01:36:27.690Z,60
2018-09-04T01:36:40.102Z,40
2018-09-04T01:36:52.518Z,25
2018-09-04T01:37:04.979Z,26
2018-09-04T01:37:17.377Z,26
2018-09-04T01:37:29.802Z,26
2018-09-04T01:37:42.262Z,26
2018-09-04T01:37:54.659Z,26
2018-09-04T01:38:07.080Z,26
2018-09-04T01:38:19.489Z,26
2018-09-04T01:38:31.906Z,40
2018-09-04T01:38:44.342Z,31
2018-09-04T01:38:56.751Z,59
2018-09-04T01:39:09.379Z,59
2018-09-04T01:39:21.782Z,59
2018-09-04T01:39:34.211Z,59
2018-09-04T01:39:46.627Z,59
2018-09-04T01:39:59.040Z,59
2018-09-04T01:40:11.508Z,59
2018-09-04T01:40:23.929Z,59
2018-09-04T01:40:36.360Z,59
2018-09-04T01:40:48.802Z,59
2018-09-04T01:41:01.235Z,59
2018-09-04T01:41:13.674Z,59
2018-09-04T01:41:26.163Z,59
2018-09-04T01:41:38.597Z,59
2018-09-04T01:41:51.025Z,59
2018-09-04T01:42:03.502Z,59
2018-09-04T01:42:15.943Z,59
2018-09-04T01:42:28.399Z,59
2018-09-04T01:42:40.811Z,59
2018-09-04T01:42:53.229Z,59
2018-09-04T01:43:05.653Z,59
2018-09-04T01:43:18.073Z,59
2018-09-04T01:43:30.491Z,59
2018-09-04T01:43:42.894Z,59
2018-09-04T01:43:55.297Z,34
2018-09-04T01:44:07.821Z,34
2018-09-04T01:44:20.279Z,34
2018-09-04T01:44:32.718Z,34
2018-09-04T01:44:45.138Z,34
2018-09-04T01:44:57.565Z,34
2018-09-04T01:45:09.981Z,34
2018-09-04T01:45:22.405Z,57
2018-09-04T01:45:34.808Z,59
2018-09-04T01:45:47.219Z,59
2018-09-04T01:45:59.617Z,59
2018-09-04T01:46:12.039Z,59
2018-09-04T01:46:24.430Z,59
2018-09-04T01:46:36.827Z,59
2018-09-04T01:46:49.242Z,59
2018-09-04T01:47:01.646Z,59
2018-09-04T01:47:14.057Z,59
2018-09-04T01:47:26.485Z,59
2018-09-04T01:47:38.917Z,59
2018-09-04T01:47:51.355Z,59
2018-09-04T01:48:04.032Z,59
2018-09-04T01:48:16.458Z,59
2018-09-04T01:48:28.877Z,59
2018-09-04T01:48:41.281Z,59
2018-09-04T01:48:53.688Z,59
2018-09-04T01:49:06.225Z,59
2018-09-04T01:49:18.945Z,59
2018-09-04T01:49:31.407Z,59
2018-09-04T01:49:43.810Z,59
2018-09-04T01:49:56.219Z,59
2018-09-04T01:50:08.622Z,59
2018-09-04T01:50:21.050Z,59
2018-09-04T01:50:33.456Z,59
2018-09-04T01:50:45.940Z,59
2018-09-04T01:50:58.332Z,58
2018-09-04T01:51:10.720Z,58
2018-09-04T01:51:23.126Z,58
2018-09-04T01:51:35.544Z,57
2018-09-04T01:51:47.971Z,41
2018-09-04T01:52:00.363Z,41
2018-09-04T01:52:12.795Z,49
2018-09-04T01:52:25.220Z,42
2018-09-04T01:52:37.632Z,43
2018-09-04T01:52:50.056Z,42
2018-09-04T01:53:02.447Z,42
2018-09-04T01:53:14.927Z,42
2018-09-04T01:53:27.321Z,42
2018-09-04T01:53:39.736Z,42
2018-09-04T01:53:52.159Z,41
2018-09-04T01:54:04.558Z,16
2018-09-04T01:54:17.020Z,350
2018-09-04T01:54:29.439Z,350
2018-09-04T01:54:41.861Z,350
2018-09-04T01:54:54.256Z,350
2018-09-04T01:55:06.795Z,350
2018-09-04T01:55:19.188Z,350
2018-09-04T01:55:31.596Z,350
2018-09-04T01:55:44.004Z,349
2018-09-04T01:55:56.421Z,349
2018-09-04T01:56:08.838Z,349
2018-09-04T01:56:21.351Z,349
2018-09-04T01:56:33.779Z,5
2018-09-04T01:56:46.248Z,10
2018-09-04T01:56:58.671Z,13
2018-09-04T01:57:11.092Z,13
2018-09-04T01:57:23.500Z,13
2018-09-04T01:57:35.904Z,13
2018-09-04T01:57:48.461Z,13
2018-09-04T01:58:00.868Z,13
2018-09-04T01:58:13.282Z,13
2018-09-04T01:58:25.690Z,13
2018-09-04T01:58:38.141Z,13
2018-09-04T01:58:50.546Z,13
2018-09-04T01:59:03.014Z,13
2018-09-04T01:59:15.409Z,13
2018-09-04T01:59:27.833Z,13
2018-09-04T01:59:40.234Z,13
2018-09-04T01:59:52.643Z,13
2018-09-04T02:00:05.053Z,13
2018-09-04T02:00:17.453Z,13
2018-09-04T02:00:29.866Z,13
2018-09-04T02:00:42.296Z,13
2018-09-04T02:00:54.720Z,13
2018-09-04T02:01:07.273Z,16
2018-09-04T02:01:19.689Z,16
2018-09-04T02:01:32.121Z,16
2018-09-04T02:01:44.545Z,16
2018-09-04T02:01:56.960Z,16
2018-09-04T02:02:09.361Z,16
2018-09-04T02:02:21.844Z,30
2018-09-04T02:02:34.285Z,73
2018-09-04T02:02:46.769Z,46
2018-09-04T02:02:59.289Z,41
2018-09-04T02:03:11.695Z,42
2018-09-04T02:03:24.104Z,38
2018-09-04T02:03:36.508Z,38
2018-09-04T02:03:48.907Z,38
2018-09-04T02:04:01.351Z,38
2018-09-04T02:04:13.860Z,38
2018-09-04T02:04:26.461Z,38
2018-09-04T02:04:38.872Z,38
2018-09-04T02:04:51.607Z,38
2018-09-04T02:05:04.005Z,38
2018-09-04T02:05:16.420Z,38
2018-09-04T02:05:28.813Z,38
2018-09-04T02:05:41.212Z,38
2018-09-04T02:05:53.623Z,38
2018-09-04T02:06:06.051Z,38
2018-09-04T02:06:18.437Z,38
2018-09-04T02:06:30.834Z,38
2018-09-04T02:06:43.297Z,38
2018-09-04T02:06:55.699Z,38
2018-09-04T02:07:08.094Z,38
2018-09-04T02:07:20.515Z,38
2018-09-04T02:07:32.928Z,38
2018-09-04T02:07:45.336Z,38
2018-09-04T02:07:57.801Z,38
2018-09-04T02:08:10.230Z,38
2018-09-04T02:08:22.653Z,38
2018-09-04T02:08:35.051Z,38
2018-09-04T02:08:47.513Z,38
2018-09-04T02:08:59.945Z,38
2018-09-04T02:09:12.395Z,38
2018-09-04T02:09:24.829Z,38
2018-09-04T02:09:37.265Z,38
2018-09-04T02:09:49.667Z,38
2018-09-04T02:10:02.090Z,38
2018-09-04T02:10:14.488Z,38
2018-09-04T02:10:26.898Z,38
2018-09-04T02:10:39.301Z,38
2018-09-04T02:10:51.685Z,38
2018-09-04T02:11:04.086Z,38
2018-09-04T02:11:16.485Z,38
2018-09-04T02:11:28.882Z,38
2018-09-04T02:11:41.513Z,33
2018-09-04T02:11:53.932Z,33
2018-09-04T02:12:06.605Z,33
2018-09-04T02:12:19.010Z,33
2018-09-04T02:12:31.408Z,33
2018-09-04T02:12:43.832Z,33
2018-09-04T02:12:56.232Z,33
2018-09-04T02:13:08.659Z,33
2018-09-04T02:13:21.047Z,33
2018-09-04T02:13:33.438Z,33
2018-09-04T02:13:45.827Z,33
2018-09-04T02:13:58.230Z,33
2018-09-04T02:14:10.625Z,33
2018-09-04T02:14:23.036Z,33
2018-09-04T02:14:35.425Z,33
2018-09-04T02:14:47.843Z,33
2018-09-04T02:15:00.249Z,33
2018-09-04T02:15:12.674Z,33
2018-09-04T02:15:25.081Z,33
2018-09-04T02:15:37.484Z,33
2018-09-04T02:15:49.906Z,33
2018-09-04T02:16:02.319Z,33
2018-09-04T02:16:14.737Z,33
2018-09-04T02:16:27.135Z,33
2018-09-04T02:16:39.527Z,33
2018-09-04T02:16:51.937Z,33
2018-09-04T02:17:04.350Z,33
2018-09-04T02:17:16.762Z,33
2018-09-04T02:17:29.162Z,33
2018-09-04T02:17:41.638Z,33
2018-09-04T02:17:54.072Z,33
2018-09-04T02:18:06.510Z,33
2018-09-04T02:18:18.937Z,33
2018-09-04T02:18:31.346Z,33
2018-09-04T02:18:43.753Z,33
2018-09-04T02:18:56.197Z,33
2018-09-04T02:19:08.628Z,33
2018-09-04T02:19:21.030Z,33
2018-09-04T02:19:33.584Z,33
2018-09-04T02:19:45.993Z,31
2018-09-04T02:19:58.612Z,31
2018-09-04T02:20:11.044Z,31
2018-09-04T02:20:23.460Z,31
2018-09-04T02:20:35.871Z,31
2018-09-04T02:20:48.447Z,31
2018-09-04T02:21:00.844Z,31
2018-09-04T02:21:13.337Z,31
2018-09-04T02:21:25.718Z,31
2018-09-04T02:21:38.118Z,31
2018-09-04T02:21:50.527Z,31
2018-09-04T02:22:02.928Z,31
2018-09-04T02:22:15.373Z,31
2018-09-04T02:22:27.775Z,31
2018-09-04T02:22:40.166Z,31
2018-09-04T02:22:52.692Z,31
2018-09-04T02:23:05.140Z,31
2018-09-04T02:23:17.545Z,31
2018-09-04T02:23:29.936Z,31
2018-09-04T02:23:42.418Z,31
2018-09-04T02:23:54.808Z,31
2018-09-04T02:24:07.217Z,31
2018-09-04T02:24:19.625Z,31
2018-09-04T02:24:32.036Z,31
2018-09-04T02:24:44.432Z,31
2018-09-04T02:24:57.174Z,31
2018-09-04T02:25:09.585Z,31
2018-09-04T02:25:21.990Z,31
2018-09-04T02:25:34.380Z,31
2018-09-04T02:25:46.776Z,31
2018-09-04T02:25:59.226Z,31
2018-09-04T02:26:11.662Z,31
2018-09-04T02:26:24.064Z,31
2018-09-04T02:26:36.456Z,31
2018-09-04T02:26:48.870Z,31
2018-09-04T02:27:01.267Z,31
2018-09-04T02:27:13.684Z,32
2018-09-04T02:27:26.086Z,32
2018-09-04T02:27:38.492Z,32
2018-09-04T02:27:50.969Z,32
2018-09-04T02:28:03.361Z,32
2018-09-04T02:28:15.756Z,32
2018-09-04T02:28:28.165Z,32
2018-09-04T02:28:40.591Z,32
2018-09-04T02:28:52.989Z,32
2018-09-04T02:29:05.400Z,32
2018-09-04T02:29:17.830Z,32
2018-09-04T02:29:30.233Z,32
2018-09-04T02:29:42.647Z,32
2018-09-04T02:29:55.038Z,32
2018-09-04T02:30:07.486Z,32
2018-09-04T02:30:19.953Z,32
2018-09-04T02:30:32.379Z,32
2018-09-04T02:30:44.795Z,32
2018-09-04T02:30:57.222Z,32
2018-09-04T02:31:09.643Z,32
2018-09-04T02:31:22.219Z,32
2018-09-04T02:31:34.615Z,32
2018-09-04T02:31:47.021Z,32
2018-09-04T02:31:59.432Z,32
2018-09-04T02:32:11.857Z,32
2018-09-04T02:32:24.275Z,32
2018-09-04T02:32:36.759Z,32
2018-09-04T02:32:49.261Z,32
2018-09-04T02:33:02.034Z,32
2018-09-04T02:33:15.628Z,32
2018-09-04T02:33:28.088Z,32
2018-09-04T02:33:40.549Z,32
2018-09-04T02:33:52.993Z,32
2018-09-04T02:34:05.426Z,32
2018-09-04T02:34:17.833Z,32
2018-09-04T02:34:30.243Z,32
2018-09-04T02:34:42.656Z,32
2018-09-04T02:34:55.134Z,32
2018-09-04T02:35:07.939Z,32
2018-09-04T02:35:20.359Z,32
2018-09-04T02:35:32.769Z,32
2018-09-04T02:35:45.196Z,32
2018-09-04T02:35:57.626Z,32
2018-09-04T02:36:10.103Z,32
2018-09-04T02:36:22.539Z,31
2018-09-04T02:36:34.960Z,31
2018-09-04T02:36:47.402Z,31
2018-09-04T02:36:59.825Z,31
2018-09-04T02:37:12.234Z,31
2018-09-04T02:37:24.652Z,31
2018-09-04T02:37:37.121Z,31
2018-09-04T02:37:49.592Z,31
2018-09-04T02:38:02.004Z,31
2018-09-04T02:38:14.521Z,31
2018-09-04T02:38:26.941Z,31
2018-09-04T02:38:39.346Z,31
2018-09-04T02:38:51.794Z,31
2018-09-04T02:39:04.246Z,31
2018-09-04T02:39:16.677Z,31
2018-09-04T02:39:29.097Z,31
2018-09-04T02:39:41.544Z,5
2018-09-04T02:39:53.958Z,9
2018-09-04T02:40:06.367Z,9
2018-09-04T02:40:18.785Z,19
2018-09-04T02:40:31.238Z,19
2018-09-04T02:40:43.653Z,19
2018-09-04T02:40:56.074Z,19
2018-09-04T02:41:08.543Z,19
2018-09-04T02:41:20.944Z,19
2018-09-04T02:41:33.409Z,15
2018-09-04T02:41:45.823Z,15
2018-09-04T02:41:58.290Z,15
2018-09-04T02:42:10.707Z,15
2018-09-04T02:42:23.173Z,15
2018-09-04T02:42:35.565Z,15
2018-09-04T02:42:47.973Z,15
2018-09-04T02:43:00.374Z,19
2018-09-04T02:43:12.812Z,19
2018-09-04T02:43:25.236Z,19
2018-09-04T02:43:37.635Z,19
2018-09-04T02:43:50.047Z,16
2018-09-04T02:44:02.480Z,16
2018-09-04T02:44:14.882Z,16
2018-09-04T02:44:27.310Z,32
2018-09-04T02:44:39.718Z,32
2018-09-04T02:44:52.112Z,32
2018-09-04T02:45:04.517Z,32
2018-09-04T02:45:16.948Z,31
2018-09-04T02:45:29.363Z,344
2018-09-04T02:45:41.823Z,344
2018-09-04T02:45:54.228Z,50
2018-09-04T02:46:06.630Z,58
2018-09-04T02:46:19.054Z,58
2018-09-04T02:46:31.460Z,57
2018-09-04T02:46:43.984Z,58
2018-09-04T02:46:56.393Z,58
2018-09-04T02:47:08.821Z,57
2018-09-04T02:47:21.221Z,57
2018-09-04T02:47:33.636Z,57
2018-09-04T02:47:46.094Z,57
2018-09-04T02:47:58.507Z,57
2018-09-04T02:48:11.135Z,57
2018-09-04T02:48:23.559Z,57
2018-09-04T02:48:35.984Z,57
2018-09-04T02:48:48.386Z,57
2018-09-04T02:49:00.788Z,57
2018-09-04T02:49:13.358Z,57
2018-09-04T02:49:25.771Z,57
2018-09-04T02:49:38.197Z,57
2018-09-04T02:49:50.621Z,57
2018-09-04T02:50:03.041Z,57
2018-09-04T02:50:15.458Z,57
2018-09-04T02:50:27.876Z,57
2018-09-04T02:50:40.293Z,57
2018-09-04T02:50:52.702Z,57
2018-09-04T02:51:05.206Z,57
2018-09-04T02:51:17.606Z,57
2018-09-04T02:51:30.010Z,57
2018-09-04T02:51:42.404Z,57
2018-09-04T02:51:54.816Z,57
2018-09-04T02:52:07.210Z,57
2018-09-04T02:52:19.640Z,57
2018-09-04T02:52:32.064Z,57
2018-09-04T02:52:44.474Z,57
2018-09-04T02:52:56.884Z,57
2018-09-04T02:53:09.291Z,39
2018-09-04T02:53:21.689Z,20
2018-09-04T02:53:34.104Z,360
2018-09-04T02:53:46.537Z,360
2018-09-04T02:53:58.945Z,351
2018-09-04T02:54:11.429Z,351
2018-09-04T02:54:23.851Z,351
2018-09-04T02:54:36.261Z,351
2018-09-04T02:54:48.699Z,351
2018-09-04T02:55:01.213Z,351
2018-09-04T02:55:13.813Z,351
2018-09-04T02:55:26.210Z,351
2018-09-04T02:55:38.621Z,355
2018-09-04T02:55:51.039Z,355
2018-09-04T02:56:03.456Z,351
2018-09-04T02:56:15.886Z,351
2018-09-04T02:56:28.315Z,360
2018-09-04T02:56:40.725Z,360
2018-09-04T02:56:53.169Z,360